sensor_id;sensor_type;location;lat;lon;timestamp;P1;durP1;ratioP1;P2;durP2;ratioP2
68457;SDS011;65384;52.016;5.428;2023-06-05T00:01:47;9.65;;;3.50;;
68457;SDS011;65384;52.016;5.428;2023-06-05T00:04:13;9.43;;;4.18;;
68457;SDS011;65384;52.016;5.428;2023-06-05T00:06:40;6.97;;;3.63;;
68457;SDS011;65384;52.016;5.428;2023-06-05T00:09:05;8.48;;;3.38;;
68457;SDS011;65384;52.016;5.428;2023-06-05T00:11:31;10.68;;;3.92;;
68457;SDS011;65384;52.016;5.428;2023-06-05T00:13:57;8.05;;;3.80;;
68457;SDS011;65384;52.016;5.428;2023-06-05T00:16:22;10.52;;;3.92;;
68457;SDS011;65384;52.016;5.428;2023-06-05T00:18:48;7.60;;;4.10;;
68457;SDS011;65384;52.016;5.428;2023-06-05T00:21:13;9.10;;;4.60;;
68457;SDS011;65384;52.016;5.428;2023-06-05T00:23:40;8.75;;;3.95;;
68457;SDS011;65384;52.016;5.428;2023-06-05T00:26:05;8.98;;;4.18;;
68457;SDS011;65384;52.016;5.428;2023-06-05T00:28:31;11.55;;;4.25;;
68457;SDS011;65384;52.016;5.428;2023-06-05T00:30:57;10.10;;;4.10;;
68457;SDS011;65384;52.016;5.428;2023-06-05T00:33:22;9.15;;;4.00;;
68457;SDS011;65384;52.016;5.428;2023-06-05T00:35:48;9.88;;;4.50;;
68457;SDS011;65384;52.016;5.428;2023-06-05T00:38:13;11.02;;;4.32;;
68457;SDS011;65384;52.016;5.428;2023-06-05T00:40:38;9.02;;;4.07;;
68457;SDS011;65384;52.016;5.428;2023-06-05T00:43:04;9.18;;;4.25;;
68457;SDS011;65384;52.016;5.428;2023-06-05T00:45:31;8.90;;;3.95;;
68457;SDS011;65384;52.016;5.428;2023-06-05T00:47:56;12.20;;;4.88;;
68457;SDS011;65384;52.016;5.428;2023-06-05T00:50:21;10.43;;;4.05;;
68457;SDS011;65384;52.016;5.428;2023-06-05T00:52:48;9.68;;;3.97;;
68457;SDS011;65384;52.016;5.428;2023-06-05T00:55:14;11.15;;;4.00;;
68457;SDS011;65384;52.016;5.428;2023-06-05T00:57:39;8.68;;;4.40;;
68457;SDS011;65384;52.016;5.428;2023-06-05T01:00:08;12.48;;;4.53;;
68457;SDS011;65384;52.016;5.428;2023-06-05T01:02:37;11.55;;;4.30;;
68457;SDS011;65384;52.016;5.428;2023-06-05T01:05:03;8.48;;;4.03;;
68457;SDS011;65384;52.016;5.428;2023-06-05T01:07:29;8.45;;;4.32;;
68457;SDS011;65384;52.016;5.428;2023-06-05T01:09:54;10.25;;;4.72;;
68457;SDS011;65384;52.016;5.428;2023-06-05T01:17:30;10.80;;;3.78;;
68457;SDS011;65384;52.016;5.428;2023-06-05T01:19:58;12.23;;;4.55;;
68457;SDS011;65384;52.016;5.428;2023-06-05T01:22:25;13.88;;;4.45;;
68457;SDS011;65384;52.016;5.428;2023-06-05T01:24:51;9.23;;;4.00;;
68457;SDS011;65384;52.016;5.428;2023-06-05T01:27:19;11.48;;;4.28;;
68457;SDS011;65384;52.016;5.428;2023-06-05T01:30:01;7.97;;;4.28;;
68457;SDS011;65384;52.016;5.428;2023-06-05T01:32:36;8.20;;;4.18;;
68457;SDS011;65384;52.016;5.428;2023-06-05T01:35:06;10.02;;;4.65;;
68457;SDS011;65384;52.016;5.428;2023-06-05T01:37:34;9.98;;;4.60;;
68457;SDS011;65384;52.016;5.428;2023-06-05T01:40:06;11.40;;;4.55;;
68457;SDS011;65384;52.016;5.428;2023-06-05T01:42:33;10.77;;;4.63;;
68457;SDS011;65384;52.016;5.428;2023-06-05T01:44:59;10.20;;;4.88;;
68457;SDS011;65384;52.016;5.428;2023-06-05T01:47:24;10.73;;;4.57;;
68457;SDS011;65384;52.016;5.428;2023-06-05T01:49:50;10.13;;;4.13;;
68457;SDS011;65384;52.016;5.428;2023-06-05T01:52:16;10.15;;;4.45;;
68457;SDS011;65384;52.016;5.428;2023-06-05T01:54:41;11.50;;;4.57;;
68457;SDS011;65384;52.016;5.428;2023-06-05T01:57:07;13.05;;;4.85;;
68457;SDS011;65384;52.016;5.428;2023-06-05T01:59:34;9.25;;;4.30;;
68457;SDS011;65384;52.016;5.428;2023-06-05T02:02:00;11.85;;;4.90;;
68457;SDS011;65384;52.016;5.428;2023-06-05T02:04:26;12.50;;;4.50;;
68457;SDS011;65384;52.016;5.428;2023-06-05T02:06:52;9.85;;;4.68;;
68457;SDS011;65384;52.016;5.428;2023-06-05T02:09:18;11.38;;;4.90;;
68457;SDS011;65384;52.016;5.428;2023-06-05T02:11:44;14.30;;;4.90;;
68457;SDS011;65384;52.016;5.428;2023-06-05T02:14:10;8.88;;;4.70;;
68457;SDS011;65384;52.016;5.428;2023-06-05T02:16:40;10.73;;;4.90;;
68457;SDS011;65384;52.016;5.428;2023-06-05T02:19:07;11.95;;;4.95;;
68457;SDS011;65384;52.016;5.428;2023-06-05T02:21:32;11.65;;;5.03;;
68457;SDS011;65384;52.016;5.428;2023-06-05T02:24:02;12.57;;;4.88;;
68457;SDS011;65384;52.016;5.428;2023-06-05T02:26:27;9.93;;;4.68;;
68457;SDS011;65384;52.016;5.428;2023-06-05T02:28:53;10.95;;;4.90;;
68457;SDS011;65384;52.016;5.428;2023-06-05T02:31:22;9.40;;;4.55;;
68457;SDS011;65384;52.016;5.428;2023-06-05T02:33:54;12.15;;;4.82;;
68457;SDS011;65384;52.016;5.428;2023-06-05T02:36:20;12.82;;;5.25;;
68457;SDS011;65384;52.016;5.428;2023-06-05T02:38:47;13.02;;;4.78;;
68457;SDS011;65384;52.016;5.428;2023-06-05T02:41:15;11.82;;;4.55;;
68457;SDS011;65384;52.016;5.428;2023-06-05T02:43:41;10.75;;;4.80;;
68457;SDS011;65384;52.016;5.428;2023-06-05T02:46:07;13.57;;;5.35;;
68457;SDS011;65384;52.016;5.428;2023-06-05T02:48:32;13.45;;;4.90;;
68457;SDS011;65384;52.016;5.428;2023-06-05T02:50:57;11.38;;;5.00;;
68457;SDS011;65384;52.016;5.428;2023-06-05T02:53:23;9.85;;;4.85;;
68457;SDS011;65384;52.016;5.428;2023-06-05T02:55:48;11.95;;;4.82;;
68457;SDS011;65384;52.016;5.428;2023-06-05T02:58:14;14.50;;;5.70;;
68457;SDS011;65384;52.016;5.428;2023-06-05T03:00:40;10.38;;;4.70;;
68457;SDS011;65384;52.016;5.428;2023-06-05T03:03:06;10.52;;;4.82;;
68457;SDS011;65384;52.016;5.428;2023-06-05T03:05:32;11.82;;;5.00;;
68457;SDS011;65384;52.016;5.428;2023-06-05T03:07:58;12.75;;;4.65;;
68457;SDS011;65384;52.016;5.428;2023-06-05T03:10:26;12.35;;;4.88;;
68457;SDS011;65384;52.016;5.428;2023-06-05T03:12:52;13.77;;;5.40;;
68457;SDS011;65384;52.016;5.428;2023-06-05T03:15:18;12.75;;;5.38;;
68457;SDS011;65384;52.016;5.428;2023-06-05T03:17:43;12.95;;;5.25;;
68457;SDS011;65384;52.016;5.428;2023-06-05T03:20:10;13.95;;;5.03;;
68457;SDS011;65384;52.016;5.428;2023-06-05T03:22:36;13.65;;;5.45;;
68457;SDS011;65384;52.016;5.428;2023-06-05T03:25:03;14.40;;;5.50;;
68457;SDS011;65384;52.016;5.428;2023-06-05T03:27:29;13.68;;;4.88;;
68457;SDS011;65384;52.016;5.428;2023-06-05T03:29:54;16.42;;;6.05;;
68457;SDS011;65384;52.016;5.428;2023-06-05T03:32:21;13.68;;;5.10;;
68457;SDS011;65384;52.016;5.428;2023-06-05T03:34:46;12.23;;;5.25;;
68457;SDS011;65384;52.016;5.428;2023-06-05T03:37:13;13.85;;;5.25;;
68457;SDS011;65384;52.016;5.428;2023-06-05T03:39:39;12.30;;;5.20;;
68457;SDS011;65384;52.016;5.428;2023-06-05T03:42:05;12.50;;;5.40;;
68457;SDS011;65384;52.016;5.428;2023-06-05T03:44:32;13.43;;;5.55;;
68457;SDS011;65384;52.016;5.428;2023-06-05T03:46:57;13.68;;;5.45;;
68457;SDS011;65384;52.016;5.428;2023-06-05T03:49:22;12.18;;;5.30;;
68457;SDS011;65384;52.016;5.428;2023-06-05T03:51:50;12.63;;;5.68;;
68457;SDS011;65384;52.016;5.428;2023-06-05T03:54:17;11.82;;;5.53;;
68457;SDS011;65384;52.016;5.428;2023-06-05T03:56:42;16.00;;;5.43;;
68457;SDS011;65384;52.016;5.428;2023-06-05T03:59:14;15.93;;;5.20;;
68457;SDS011;65384;52.016;5.428;2023-06-05T04:01:47;13.50;;;5.32;;
68457;SDS011;65384;52.016;5.428;2023-06-05T04:04:12;15.13;;;5.60;;
68457;SDS011;65384;52.016;5.428;2023-06-05T04:06:38;13.40;;;5.88;;
68457;SDS011;65384;52.016;5.428;2023-06-05T04:09:05;13.75;;;5.53;;
68457;SDS011;65384;52.016;5.428;2023-06-05T04:11:36;12.65;;;5.85;;
68457;SDS011;65384;52.016;5.428;2023-06-05T04:14:11;15.48;;;5.70;;
68457;SDS011;65384;52.016;5.428;2023-06-05T04:16:36;17.00;;;5.97;;
68457;SDS011;65384;52.016;5.428;2023-06-05T04:19:07;13.05;;;4.85;;
68457;SDS011;65384;52.016;5.428;2023-06-05T04:21:38;14.27;;;4.97;;
68457;SDS011;65384;52.016;5.428;2023-06-05T04:24:07;16.10;;;5.82;;
68457;SDS011;65384;52.016;5.428;2023-06-05T04:26:38;14.20;;;5.82;;
68457;SDS011;65384;52.016;5.428;2023-06-05T04:29:06;15.35;;;5.55;;
68457;SDS011;65384;52.016;5.428;2023-06-05T04:31:37;15.83;;;6.27;;
68457;SDS011;65384;52.016;5.428;2023-06-05T04:34:05;13.82;;;5.00;;
68457;SDS011;65384;52.016;5.428;2023-06-05T04:36:32;16.83;;;6.28;;
68457;SDS011;65384;52.016;5.428;2023-06-05T04:38:59;15.40;;;5.32;;
68457;SDS011;65384;52.016;5.428;2023-06-05T04:41:26;15.18;;;6.00;;
68457;SDS011;65384;52.016;5.428;2023-06-05T04:43:53;17.33;;;6.03;;
68457;SDS011;65384;52.016;5.428;2023-06-05T04:46:19;15.60;;;6.00;;
68457;SDS011;65384;52.016;5.428;2023-06-05T04:48:45;18.27;;;5.85;;
68457;SDS011;65384;52.016;5.428;2023-06-05T04:51:10;14.38;;;5.65;;
68457;SDS011;65384;52.016;5.428;2023-06-05T04:53:36;14.35;;;5.68;;
68457;SDS011;65384;52.016;5.428;2023-06-05T04:56:02;14.75;;;5.97;;
68457;SDS011;65384;52.016;5.428;2023-06-05T04:58:28;19.92;;;6.55;;
68457;SDS011;65384;52.016;5.428;2023-06-05T05:00:53;14.23;;;6.13;;
68457;SDS011;65384;52.016;5.428;2023-06-05T05:03:18;15.45;;;6.28;;
68457;SDS011;65384;52.016;5.428;2023-06-05T05:05:44;14.82;;;5.68;;
68457;SDS011;65384;52.016;5.428;2023-06-05T05:08:09;14.45;;;5.88;;
68457;SDS011;65384;52.016;5.428;2023-06-05T05:10:35;14.40;;;6.20;;
68457;SDS011;65384;52.016;5.428;2023-06-05T05:13:01;17.05;;;5.95;;
68457;SDS011;65384;52.016;5.428;2023-06-05T05:15:27;13.70;;;5.90;;
68457;SDS011;65384;52.016;5.428;2023-06-05T05:17:54;12.32;;;5.75;;
68457;SDS011;65384;52.016;5.428;2023-06-05T05:20:21;16.23;;;6.28;;
68457;SDS011;65384;52.016;5.428;2023-06-05T05:22:46;14.70;;;6.05;;
68457;SDS011;65384;52.016;5.428;2023-06-05T05:25:11;18.88;;;6.03;;
68457;SDS011;65384;52.016;5.428;2023-06-05T05:27:37;11.73;;;5.20;;
68457;SDS011;65384;52.016;5.428;2023-06-05T05:30:02;15.80;;;6.25;;
68457;SDS011;65384;52.016;5.428;2023-06-05T05:32:28;14.13;;;5.90;;
68457;SDS011;65384;52.016;5.428;2023-06-05T05:34:53;16.42;;;6.18;;
68457;SDS011;65384;52.016;5.428;2023-06-05T05:37:18;14.75;;;5.90;;
68457;SDS011;65384;52.016;5.428;2023-06-05T05:39:44;20.25;;;6.13;;
68457;SDS011;65384;52.016;5.428;2023-06-05T05:42:09;15.27;;;5.53;;
68457;SDS011;65384;52.016;5.428;2023-06-05T05:44:35;13.30;;;5.82;;
68457;SDS011;65384;52.016;5.428;2023-06-05T05:47:01;12.48;;;5.40;;
68457;SDS011;65384;52.016;5.428;2023-06-05T05:49:26;14.35;;;5.80;;
68457;SDS011;65384;52.016;5.428;2023-06-05T05:51:51;13.25;;;5.70;;
68457;SDS011;65384;52.016;5.428;2023-06-05T05:54:17;13.07;;;5.43;;
68457;SDS011;65384;52.016;5.428;2023-06-05T05:56:42;13.57;;;5.55;;
68457;SDS011;65384;52.016;5.428;2023-06-05T05:59:08;10.60;;;5.15;;
68457;SDS011;65384;52.016;5.428;2023-06-05T06:01:34;13.88;;;5.72;;
68457;SDS011;65384;52.016;5.428;2023-06-05T06:03:59;14.02;;;5.93;;
68457;SDS011;65384;52.016;5.428;2023-06-05T06:06:24;10.98;;;5.15;;
68457;SDS011;65384;52.016;5.428;2023-06-05T06:08:51;13.50;;;5.55;;
68457;SDS011;65384;52.016;5.428;2023-06-05T06:11:16;14.70;;;5.53;;
68457;SDS011;65384;52.016;5.428;2023-06-05T06:13:41;10.35;;;5.38;;
68457;SDS011;65384;52.016;5.428;2023-06-05T06:16:08;12.05;;;5.93;;
68457;SDS011;65384;52.016;5.428;2023-06-05T06:18:33;14.15;;;5.80;;
68457;SDS011;65384;52.016;5.428;2023-06-05T06:20:59;13.32;;;5.32;;
68457;SDS011;65384;52.016;5.428;2023-06-05T06:23:24;17.77;;;5.57;;
68457;SDS011;65384;52.016;5.428;2023-06-05T06:25:49;16.40;;;5.78;;
68457;SDS011;65384;52.016;5.428;2023-06-05T06:28:16;12.50;;;5.30;;
68457;SDS011;65384;52.016;5.428;2023-06-05T06:30:42;10.93;;;5.25;;
68457;SDS011;65384;52.016;5.428;2023-06-05T06:33:08;12.15;;;5.57;;
68457;SDS011;65384;52.016;5.428;2023-06-05T06:35:34;10.80;;;4.85;;
68457;SDS011;65384;52.016;5.428;2023-06-05T06:38:00;12.93;;;5.78;;
68457;SDS011;65384;52.016;5.428;2023-06-05T06:40:25;13.88;;;5.53;;
68457;SDS011;65384;52.016;5.428;2023-06-05T06:42:53;10.85;;;5.40;;
68457;SDS011;65384;52.016;5.428;2023-06-05T06:45:19;14.50;;;5.45;;
68457;SDS011;65384;52.016;5.428;2023-06-05T06:47:44;14.80;;;5.35;;
68457;SDS011;65384;52.016;5.428;2023-06-05T06:50:10;9.85;;;5.10;;
68457;SDS011;65384;52.016;5.428;2023-06-05T06:52:35;11.60;;;5.60;;
68457;SDS011;65384;52.016;5.428;2023-06-05T06:55:01;10.30;;;4.80;;
68457;SDS011;65384;52.016;5.428;2023-06-05T06:57:26;9.90;;;4.70;;
68457;SDS011;65384;52.016;5.428;2023-06-05T06:59:52;8.40;;;4.85;;
68457;SDS011;65384;52.016;5.428;2023-06-05T07:02:18;11.93;;;4.97;;
68457;SDS011;65384;52.016;5.428;2023-06-05T07:04:45;9.77;;;5.20;;
68457;SDS011;65384;52.016;5.428;2023-06-05T07:07:11;11.77;;;5.25;;
68457;SDS011;65384;52.016;5.428;2023-06-05T07:09:41;9.85;;;4.90;;
68457;SDS011;65384;52.016;5.428;2023-06-05T07:12:10;11.73;;;5.25;;
68457;SDS011;65384;52.016;5.428;2023-06-05T07:14:37;9.32;;;4.43;;
68457;SDS011;65384;52.016;5.428;2023-06-05T07:17:03;9.93;;;4.97;;
68457;SDS011;65384;52.016;5.428;2023-06-05T07:19:32;9.45;;;4.72;;
68457;SDS011;65384;52.016;5.428;2023-06-05T07:21:59;11.82;;;5.25;;
68457;SDS011;65384;52.016;5.428;2023-06-05T07:24:26;10.48;;;5.15;;
68457;SDS011;65384;52.016;5.428;2023-06-05T07:26:54;10.30;;;4.72;;
68457;SDS011;65384;52.016;5.428;2023-06-05T07:29:21;12.00;;;4.85;;
68457;SDS011;65384;52.016;5.428;2023-06-05T07:31:48;10.30;;;4.47;;
68457;SDS011;65384;52.016;5.428;2023-06-05T07:34:14;12.13;;;4.82;;
68457;SDS011;65384;52.016;5.428;2023-06-05T07:36:40;12.15;;;5.10;;
68457;SDS011;65384;52.016;5.428;2023-06-05T07:39:05;8.20;;;4.50;;
68457;SDS011;65384;52.016;5.428;2023-06-05T07:41:30;10.05;;;4.72;;
68457;SDS011;65384;52.016;5.428;2023-06-05T07:43:56;7.07;;;4.30;;
68457;SDS011;65384;52.016;5.428;2023-06-05T07:46:22;11.27;;;4.78;;
68457;SDS011;65384;52.016;5.428;2023-06-05T07:48:47;8.88;;;4.97;;
68457;SDS011;65384;52.016;5.428;2023-06-05T07:51:13;13.13;;;5.10;;
68457;SDS011;65384;52.016;5.428;2023-06-05T07:53:38;9.75;;;5.15;;
68457;SDS011;65384;52.016;5.428;2023-06-05T07:56:03;9.15;;;4.65;;
68457;SDS011;65384;52.016;5.428;2023-06-05T07:58:29;9.02;;;5.15;;
68457;SDS011;65384;52.016;5.428;2023-06-05T08:00:55;8.35;;;4.93;;
68457;SDS011;65384;52.016;5.428;2023-06-05T08:03:22;11.00;;;5.50;;
68457;SDS011;65384;52.016;5.428;2023-06-05T08:05:48;9.48;;;4.97;;
68457;SDS011;65384;52.016;5.428;2023-06-05T08:08:15;12.13;;;5.72;;
68457;SDS011;65384;52.016;5.428;2023-06-05T08:10:40;10.93;;;5.70;;
68457;SDS011;65384;52.016;5.428;2023-06-05T08:13:07;9.93;;;5.10;;
68457;SDS011;65384;52.016;5.428;2023-06-05T08:15:33;8.93;;;5.47;;
68457;SDS011;65384;52.016;5.428;2023-06-05T08:17:58;10.93;;;5.47;;
68457;SDS011;65384;52.016;5.428;2023-06-05T08:20:24;10.85;;;5.40;;
68457;SDS011;65384;52.016;5.428;2023-06-05T08:22:49;10.38;;;5.47;;
68457;SDS011;65384;52.016;5.428;2023-06-05T08:25:15;12.05;;;5.78;;
68457;SDS011;65384;52.016;5.428;2023-06-05T08:27:40;9.38;;;5.22;;
68457;SDS011;65384;52.016;5.428;2023-06-05T08:30:06;10.55;;;6.00;;
68457;SDS011;65384;52.016;5.428;2023-06-05T08:32:32;9.52;;;4.95;;
68457;SDS011;65384;52.016;5.428;2023-06-05T08:34:58;12.15;;;5.90;;
68457;SDS011;65384;52.016;5.428;2023-06-05T08:37:23;9.48;;;5.40;;
68457;SDS011;65384;52.016;5.428;2023-06-05T08:39:49;9.43;;;5.50;;
68457;SDS011;65384;52.016;5.428;2023-06-05T08:42:15;11.57;;;6.30;;
68457;SDS011;65384;52.016;5.428;2023-06-05T08:44:43;9.95;;;5.40;;
68457;SDS011;65384;52.016;5.428;2023-06-05T08:47:14;13.80;;;5.20;;
68457;SDS011;65384;52.016;5.428;2023-06-05T08:49:41;10.93;;;5.50;;
68457;SDS011;65384;52.016;5.428;2023-06-05T08:52:07;12.70;;;5.85;;
68457;SDS011;65384;52.016;5.428;2023-06-05T08:54:39;7.63;;;5.32;;
68457;SDS011;65384;52.016;5.428;2023-06-05T08:57:06;8.73;;;5.28;;
68457;SDS011;65384;52.016;5.428;2023-06-05T08:59:32;18.85;;;5.70;;
68457;SDS011;65384;52.016;5.428;2023-06-05T09:01:58;11.43;;;5.75;;
68457;SDS011;65384;52.016;5.428;2023-06-05T09:04:23;11.60;;;5.68;;
68457;SDS011;65384;52.016;5.428;2023-06-05T09:06:49;8.35;;;5.72;;
68457;SDS011;65384;52.016;5.428;2023-06-05T09:09:18;9.63;;;5.45;;
68457;SDS011;65384;52.016;5.428;2023-06-05T09:11:43;9.85;;;5.75;;
68457;SDS011;65384;52.016;5.428;2023-06-05T09:14:09;8.32;;;5.28;;
68457;SDS011;65384;52.016;5.428;2023-06-05T09:16:39;10.85;;;5.72;;
68457;SDS011;65384;52.016;5.428;2023-06-05T09:19:07;10.48;;;5.75;;
68457;SDS011;65384;52.016;5.428;2023-06-05T09:21:33;12.32;;;5.80;;
68457;SDS011;65384;52.016;5.428;2023-06-05T09:26:44;9.30;;;5.57;;
68457;SDS011;65384;52.016;5.428;2023-06-05T09:31:55;11.38;;;5.57;;
68457;SDS011;65384;52.016;5.428;2023-06-05T09:34:35;12.70;;;6.20;;
68457;SDS011;65384;52.016;5.428;2023-06-05T09:37:03;10.25;;;5.60;;
68457;SDS011;65384;52.016;5.428;2023-06-05T09:39:30;10.43;;;5.70;;
68457;SDS011;65384;52.016;5.428;2023-06-05T09:41:57;10.20;;;5.55;;
68457;SDS011;65384;52.016;5.428;2023-06-05T09:44:23;9.52;;;5.78;;
68457;SDS011;65384;52.016;5.428;2023-06-05T09:46:56;8.80;;;5.50;;
68457;SDS011;65384;52.016;5.428;2023-06-05T09:49:29;10.13;;;6.20;;
68457;SDS011;65384;52.016;5.428;2023-06-05T09:51:59;8.98;;;6.03;;
68457;SDS011;65384;52.016;5.428;2023-06-05T09:54:29;11.25;;;6.30;;
68457;SDS011;65384;52.016;5.428;2023-06-05T09:56:59;10.07;;;5.95;;
68457;SDS011;65384;52.016;5.428;2023-06-05T09:59:33;7.33;;;5.57;;
68457;SDS011;65384;52.016;5.428;2023-06-05T10:02:01;14.10;;;6.15;;
68457;SDS011;65384;52.016;5.428;2023-06-05T10:04:29;10.23;;;6.00;;
68457;SDS011;65384;52.016;5.428;2023-06-05T10:06:59;10.73;;;6.10;;
68457;SDS011;65384;52.016;5.428;2023-06-05T10:09:26;9.32;;;5.43;;
68457;SDS011;65384;52.016;5.428;2023-06-05T10:11:51;9.40;;;5.60;;
68457;SDS011;65384;52.016;5.428;2023-06-05T10:14:20;9.40;;;5.30;;
68457;SDS011;65384;52.016;5.428;2023-06-05T10:16:49;11.15;;;6.18;;
68457;SDS011;65384;52.016;5.428;2023-06-05T10:19:16;10.55;;;5.90;;
68457;SDS011;65384;52.016;5.428;2023-06-05T10:21:44;8.52;;;5.88;;
68457;SDS011;65384;52.016;5.428;2023-06-05T10:24:13;12.05;;;5.47;;
68457;SDS011;65384;52.016;5.428;2023-06-05T10:31:53;8.75;;;5.50;;
68457;SDS011;65384;52.016;5.428;2023-06-05T10:34:40;9.68;;;5.50;;
68457;SDS011;65384;52.016;5.428;2023-06-05T10:40:34;9.57;;;5.78;;
68457;SDS011;65384;52.016;5.428;2023-06-05T10:46:27;8.18;;;4.97;;
68457;SDS011;65384;52.016;5.428;2023-06-05T10:49:07;10.05;;;4.40;;
68457;SDS011;65384;52.016;5.428;2023-06-05T10:51:45;8.48;;;5.05;;
68457;SDS011;65384;52.016;5.428;2023-06-05T10:54:12;9.65;;;5.20;;
68457;SDS011;65384;52.016;5.428;2023-06-05T11:15:00;9.80;;;4.27;;
68457;SDS011;65384;52.016;5.428;2023-06-05T11:19:59;8.30;;;4.32;;
68457;SDS011;65384;52.016;5.428;2023-06-05T11:22:26;8.32;;;4.30;;
68457;SDS011;65384;52.016;5.428;2023-06-05T11:27:52;6.22;;;4.07;;
68457;SDS011;65384;52.016;5.428;2023-06-05T11:30:27;9.15;;;5.03;;
68457;SDS011;65384;52.016;5.428;2023-06-05T11:32:57;6.57;;;4.87;;
68457;SDS011;65384;52.016;5.428;2023-06-05T11:35:44;6.32;;;4.40;;
68457;SDS011;65384;52.016;5.428;2023-06-05T11:40:39;8.15;;;4.10;;
68457;SDS011;65384;52.016;5.428;2023-06-05T11:43:06;6.30;;;3.80;;
68457;SDS011;65384;52.016;5.428;2023-06-05T11:45:32;7.60;;;3.83;;
68457;SDS011;65384;52.016;5.428;2023-06-05T11:48:09;6.70;;;3.70;;
68457;SDS011;65384;52.016;5.428;2023-06-05T11:50:35;6.47;;;3.97;;
68457;SDS011;65384;52.016;5.428;2023-06-05T11:53:05;6.88;;;4.10;;
68457;SDS011;65384;52.016;5.428;2023-06-05T11:55:39;8.45;;;3.97;;
68457;SDS011;65384;52.016;5.428;2023-06-05T12:00:48;6.55;;;4.00;;
68457;SDS011;65384;52.016;5.428;2023-06-05T12:03:20;6.50;;;3.20;;
68457;SDS011;65384;52.016;5.428;2023-06-05T12:05:46;7.13;;;3.85;;
68457;SDS011;65384;52.016;5.428;2023-06-05T12:08:25;7.15;;;3.63;;
68457;SDS011;65384;52.016;5.428;2023-06-05T12:10:52;5.72;;;3.05;;
68457;SDS011;65384;52.016;5.428;2023-06-05T12:13:18;6.28;;;3.00;;
68457;SDS011;65384;52.016;5.428;2023-06-05T12:15:55;8.52;;;3.00;;
68457;SDS011;65384;52.016;5.428;2023-06-05T12:18:30;5.55;;;3.35;;
68457;SDS011;65384;52.016;5.428;2023-06-05T12:20:58;7.38;;;3.22;;
68457;SDS011;65384;52.016;5.428;2023-06-05T12:23:29;6.45;;;2.90;;
68457;SDS011;65384;52.016;5.428;2023-06-05T12:26:04;6.30;;;3.10;;
68457;SDS011;65384;52.016;5.428;2023-06-05T12:28:30;5.82;;;2.78;;
68457;SDS011;65384;52.016;5.428;2023-06-05T12:30:56;5.65;;;2.88;;
68457;SDS011;65384;52.016;5.428;2023-06-05T12:33:22;7.25;;;3.00;;
68457;SDS011;65384;52.016;5.428;2023-06-05T12:36:06;6.82;;;3.17;;
68457;SDS011;65384;52.016;5.428;2023-06-05T12:38:38;5.68;;;2.72;;
68457;SDS011;65384;52.016;5.428;2023-06-05T12:41:05;4.80;;;3.05;;
68457;SDS011;65384;52.016;5.428;2023-06-05T12:43:32;7.90;;;3.20;;
68457;SDS011;65384;52.016;5.428;2023-06-05T12:45:57;8.45;;;3.10;;
68457;SDS011;65384;52.016;5.428;2023-06-05T12:48:23;6.13;;;2.92;;
68457;SDS011;65384;52.016;5.428;2023-06-05T12:50:48;5.53;;;3.47;;
68457;SDS011;65384;52.016;5.428;2023-06-05T12:53:14;5.20;;;3.20;;
68457;SDS011;65384;52.016;5.428;2023-06-05T12:55:39;4.35;;;2.97;;
68457;SDS011;65384;52.016;5.428;2023-06-05T12:58:06;4.10;;;2.67;;
68457;SDS011;65384;52.016;5.428;2023-06-05T13:00:31;11.23;;;3.03;;
68457;SDS011;65384;52.016;5.428;2023-06-05T13:02:57;3.80;;;2.75;;
68457;SDS011;65384;52.016;5.428;2023-06-05T13:05:22;7.10;;;3.30;;
68457;SDS011;65384;52.016;5.428;2023-06-05T13:07:48;4.40;;;2.63;;
68457;SDS011;65384;52.016;5.428;2023-06-05T13:10:14;4.45;;;2.80;;
68457;SDS011;65384;52.016;5.428;2023-06-05T13:12:40;8.35;;;3.00;;
68457;SDS011;65384;52.016;5.428;2023-06-05T13:15:07;4.28;;;2.78;;
68457;SDS011;65384;52.016;5.428;2023-06-05T13:17:33;4.53;;;2.63;;
68457;SDS011;65384;52.016;5.428;2023-06-05T13:20:00;8.10;;;2.70;;
68457;SDS011;65384;52.016;5.428;2023-06-05T13:22:28;6.55;;;2.90;;
68457;SDS011;65384;52.016;5.428;2023-06-05T13:24:54;5.32;;;3.20;;
68457;SDS011;65384;52.016;5.428;2023-06-05T13:27:19;11.52;;;2.90;;
68457;SDS011;65384;52.016;5.428;2023-06-05T13:29:46;5.53;;;3.00;;
68457;SDS011;65384;52.016;5.428;2023-06-05T13:32:11;5.53;;;2.60;;
68457;SDS011;65384;52.016;5.428;2023-06-05T13:34:36;7.22;;;2.92;;
68457;SDS011;65384;52.016;5.428;2023-06-05T13:37:02;6.85;;;2.72;;
68457;SDS011;65384;52.016;5.428;2023-06-05T13:39:28;4.28;;;2.50;;
68457;SDS011;65384;52.016;5.428;2023-06-05T13:41:53;6.40;;;2.80;;
68457;SDS011;65384;52.016;5.428;2023-06-05T13:44:18;8.15;;;2.83;;
68457;SDS011;65384;52.016;5.428;2023-06-05T13:46:44;7.57;;;3.10;;
68457;SDS011;65384;52.016;5.428;2023-06-05T13:49:11;5.85;;;3.15;;
68457;SDS011;65384;52.016;5.428;2023-06-05T13:51:36;7.80;;;2.80;;
68457;SDS011;65384;52.016;5.428;2023-06-05T13:54:03;5.53;;;2.88;;
68457;SDS011;65384;52.016;5.428;2023-06-05T13:56:29;6.63;;;2.83;;
68457;SDS011;65384;52.016;5.428;2023-06-05T13:58:54;6.35;;;3.10;;
68457;SDS011;65384;52.016;5.428;2023-06-05T14:01:21;6.80;;;3.00;;
68457;SDS011;65384;52.016;5.428;2023-06-05T14:03:46;7.32;;;3.40;;
68457;SDS011;65384;52.016;5.428;2023-06-05T14:06:12;4.88;;;3.13;;
68457;SDS011;65384;52.016;5.428;2023-06-05T14:08:38;6.32;;;3.40;;
68457;SDS011;65384;52.016;5.428;2023-06-05T14:11:03;8.23;;;3.35;;
68457;SDS011;65384;52.016;5.428;2023-06-05T14:13:29;7.55;;;3.80;;
68457;SDS011;65384;52.016;5.428;2023-06-05T14:15:55;6.93;;;3.55;;
68457;SDS011;65384;52.016;5.428;2023-06-05T14:18:20;6.05;;;3.67;;
68457;SDS011;65384;52.016;5.428;2023-06-05T14:20:46;6.97;;;3.28;;
68457;SDS011;65384;52.016;5.428;2023-06-05T14:23:11;7.00;;;3.33;;
68457;SDS011;65384;52.016;5.428;2023-06-05T14:25:37;10.15;;;3.83;;
68457;SDS011;65384;52.016;5.428;2023-06-05T14:28:02;6.25;;;3.40;;
68457;SDS011;65384;52.016;5.428;2023-06-05T14:30:28;6.97;;;3.22;;
68457;SDS011;65384;52.016;5.428;2023-06-05T14:32:54;7.28;;;3.97;;
68457;SDS011;65384;52.016;5.428;2023-06-05T14:35:20;7.72;;;3.85;;
68457;SDS011;65384;52.016;5.428;2023-06-05T14:37:47;11.98;;;3.60;;
68457;SDS011;65384;52.016;5.428;2023-06-05T14:40:12;9.00;;;3.60;;
68457;SDS011;65384;52.016;5.428;2023-06-05T14:42:38;7.18;;;3.35;;
68457;SDS011;65384;52.016;5.428;2023-06-05T14:45:03;6.53;;;3.80;;
68457;SDS011;65384;52.016;5.428;2023-06-05T14:47:29;7.50;;;3.90;;
68457;SDS011;65384;52.016;5.428;2023-06-05T14:49:55;5.45;;;3.55;;
68457;SDS011;65384;52.016;5.428;2023-06-05T14:52:20;7.00;;;4.03;;
68457;SDS011;65384;52.016;5.428;2023-06-05T14:54:45;7.68;;;4.18;;
68457;SDS011;65384;52.016;5.428;2023-06-05T14:57:11;6.78;;;4.00;;
68457;SDS011;65384;52.016;5.428;2023-06-05T14:59:36;13.30;;;4.22;;
68457;SDS011;65384;52.016;5.428;2023-06-05T15:02:02;10.88;;;3.72;;
68457;SDS011;65384;52.016;5.428;2023-06-05T15:04:27;7.82;;;3.33;;
68457;SDS011;65384;52.016;5.428;2023-06-05T15:06:53;7.45;;;3.60;;
68457;SDS011;65384;52.016;5.428;2023-06-05T15:09:20;8.27;;;3.63;;
68457;SDS011;65384;52.016;5.428;2023-06-05T15:11:46;7.32;;;3.58;;
68457;SDS011;65384;52.016;5.428;2023-06-05T15:14:11;7.13;;;3.30;;
68457;SDS011;65384;52.016;5.428;2023-06-05T15:16:37;8.75;;;3.72;;
68457;SDS011;65384;52.016;5.428;2023-06-05T15:19:03;7.60;;;3.83;;
68457;SDS011;65384;52.016;5.428;2023-06-05T15:21:28;7.22;;;3.65;;
68457;SDS011;65384;52.016;5.428;2023-06-05T15:23:54;10.27;;;3.80;;
68457;SDS011;65384;52.016;5.428;2023-06-05T15:26:20;8.27;;;4.13;;
68457;SDS011;65384;52.016;5.428;2023-06-05T15:28:46;9.43;;;4.03;;
68457;SDS011;65384;52.016;5.428;2023-06-05T15:31:12;7.15;;;3.90;;